sensor_id;sensor_type;location;lat;lon;timestamp;P1;durP1;ratioP1;P2;durP2;ratioP2
77802;SDS011;66993;48.256;16.422;2023-03-01T00:02:40;43.3;;;20.4;;
77802;SDS011;66993;48.256;16.422;2023-03-01T00:07:42;43.7;;;20.4;;
77802;SDS011;66993;48.256;16.422;2023-03-01T00:12:43;43.2;;;18.9;;
77802;SDS011;66993;48.256;16.422;2023-03-01T00:17:44;47.5;;;21.9;;
77802;SDS011;66993;48.256;16.422;2023-03-01T00:22:45;40.1;;;18.8;;
77802;SDS011;66993;48.256;16.422;2023-03-01T00:27:47;42.4;;;18.5;;
77802;SDS011;66993;48.256;16.422;2023-03-01T00:32:48;44.3;;;19.8;;
77802;SDS011;66993;48.256;16.422;2023-03-01T00:37:49;46.4;;;20.2;;
77802;SDS011;66993;48.256;16.422;2023-03-01T00:42:50;47.2;;;21.9;;
77802;SDS011;66993;48.256;16.422;2023-03-01T00:47:52;43.0;;;20.5;;
77802;SDS011;66993;48.256;16.422;2023-03-01T00:52:53;41.7;;;19.7;;
77802;SDS011;66993;48.256;16.422;2023-03-01T00:57:54;41.3;;;19.4;;
77802;SDS011;66993;48.256;16.422;2023-03-01T01:02:55;46.7;;;19.7;;
77802;SDS011;66993;48.256;16.422;2023-03-01T01:07:56;43.0;;;19.8;;
77802;SDS011;66993;48.256;16.422;2023-03-01T01:12:58;42.8;;;20.3;;
77802;SDS011;66993;48.256;16.422;2023-03-01T01:17:59;44.7;;;18.8;;
77802;SDS011;66993;48.256;16.422;2023-03-01T01:23:00;46.1;;;20.6;;
77802;SDS011;66993;48.256;16.422;2023-03-01T01:28:02;43.4;;;18.7;;
77802;SDS011;66993;48.256;16.422;2023-03-01T01:33:03;43.9;;;20.5;;
77802;SDS011;66993;48.256;16.422;2023-03-01T01:38:04;46.7;;;20.0;;
77802;SDS011;66993;48.256;16.422;2023-03-01T01:43:07;40.0;;;18.1;;
77802;SDS011;66993;48.256;16.422;2023-03-01T01:48:10;46.6;;;19.6;;
77802;SDS011;66993;48.256;16.422;2023-03-01T01:53:09;42.7;;;19.3;;
77802;SDS011;66993;48.256;16.422;2023-03-01T01:58:09;47.7;;;22.2;;
77802;SDS011;66993;48.256;16.422;2023-03-01T02:03:11;46.1;;;20.2;;
77802;SDS011;66993;48.256;16.422;2023-03-01T02:08:12;48.6;;;20.6;;
77802;SDS011;66993;48.256;16.422;2023-03-01T02:13:13;44.9;;;20.8;;
77802;SDS011;66993;48.256;16.422;2023-03-01T02:18:16;45.4;;;20.3;;
77802;SDS011;66993;48.256;16.422;2023-03-01T02:23:15;46.2;;;21.9;;
77802;SDS011;66993;48.256;16.422;2023-03-01T02:28:20;48.3;;;22.0;;
77802;SDS011;66993;48.256;16.422;2023-03-01T02:33:18;44.8;;;20.9;;
77802;SDS011;66993;48.256;16.422;2023-03-01T02:38:19;44.2;;;21.0;;
77802;SDS011;66993;48.256;16.422;2023-03-01T02:43:20;42.3;;;20.0;;
77802;SDS011;66993;48.256;16.422;2023-03-01T02:48:22;48.3;;;22.7;;
77802;SDS011;66993;48.256;16.422;2023-03-01T02:53:24;45.8;;;21.1;;
77802;SDS011;66993;48.256;16.422;2023-03-01T02:58:24;54.8;;;23.0;;
77802;SDS011;66993;48.256;16.422;2023-03-01T03:03:25;48.3;;;22.1;;
77802;SDS011;66993;48.256;16.422;2023-03-01T03:08:27;50.6;;;21.9;;
77802;SDS011;66993;48.256;16.422;2023-03-01T03:13:28;56.7;;;24.7;;
77802;SDS011;66993;48.256;16.422;2023-03-01T03:18:29;49.8;;;23.6;;
77802;SDS011;66993;48.256;16.422;2023-03-01T03:23:30;52.1;;;24.4;;
77802;SDS011;66993;48.256;16.422;2023-03-01T03:28:32;53.5;;;25.9;;
77802;SDS011;66993;48.256;16.422;2023-03-01T03:33:33;51.4;;;22.6;;
77802;SDS011;66993;48.256;16.422;2023-03-01T03:38:35;51.8;;;25.0;;
77802;SDS011;66993;48.256;16.422;2023-03-01T03:43:36;48.4;;;22.3;;
77802;SDS011;66993;48.256;16.422;2023-03-01T03:48:38;51.4;;;23.2;;
77802;SDS011;66993;48.256;16.422;2023-03-01T03:53:38;52.7;;;23.1;;
77802;SDS011;66993;48.256;16.422;2023-03-01T03:58:39;53.2;;;22.1;;
77802;SDS011;66993;48.256;16.422;2023-03-01T04:03:40;51.2;;;23.2;;
77802;SDS011;66993;48.256;16.422;2023-03-01T04:08:42;50.9;;;22.4;;
77802;SDS011;66993;48.256;16.422;2023-03-01T04:13:43;48.3;;;22.4;;
77802;SDS011;66993;48.256;16.422;2023-03-01T04:18:44;52.4;;;23.8;;
77802;SDS011;66993;48.256;16.422;2023-03-01T04:23:45;50.3;;;22.7;;
77802;SDS011;66993;48.256;16.422;2023-03-01T04:28:47;48.3;;;23.3;;
77802;SDS011;66993;48.256;16.422;2023-03-01T04:33:48;52.0;;;23.3;;
77802;SDS011;66993;48.256;16.422;2023-03-01T04:38:49;52.3;;;22.6;;
77802;SDS011;66993;48.256;16.422;2023-03-01T04:43:50;49.6;;;23.5;;
77802;SDS011;66993;48.256;16.422;2023-03-01T04:48:51;49.4;;;22.8;;
77802;SDS011;66993;48.256;16.422;2023-03-01T04:53:53;48.7;;;23.5;;
77802;SDS011;66993;48.256;16.422;2023-03-01T04:58:54;50.8;;;23.8;;
77802;SDS011;66993;48.256;16.422;2023-03-01T05:03:55;54.5;;;23.0;;
77802;SDS011;66993;48.256;16.422;2023-03-01T05:08:57;53.2;;;24.1;;
77802;SDS011;66993;48.256;16.422;2023-03-01T05:13:57;50.0;;;22.4;;
77802;SDS011;66993;48.256;16.422;2023-03-01T05:18:59;48.6;;;23.6;;
77802;SDS011;66993;48.256;16.422;2023-03-01T05:24:00;52.9;;;22.7;;
77802;SDS011;66993;48.256;16.422;2023-03-01T05:29:01;49.2;;;22.8;;
77802;SDS011;66993;48.256;16.422;2023-03-01T05:34:02;46.1;;;23.0;;
77802;SDS011;66993;48.256;16.422;2023-03-01T05:39:04;45.6;;;21.9;;
77802;SDS011;66993;48.256;16.422;2023-03-01T05:44:05;46.7;;;22.2;;
77802;SDS011;66993;48.256;16.422;2023-03-01T05:49:06;48.3;;;21.3;;
77802;SDS011;66993;48.256;16.422;2023-03-01T05:54:08;48.8;;;22.5;;
77802;SDS011;66993;48.256;16.422;2023-03-01T05:59:09;50.2;;;22.0;;
77802;SDS011;66993;48.256;16.422;2023-03-01T06:04:10;49.3;;;22.1;;
77802;SDS011;66993;48.256;16.422;2023-03-01T06:09:11;51.6;;;22.8;;
77802;SDS011;66993;48.256;16.422;2023-03-01T06:14:12;47.2;;;21.9;;
77802;SDS011;66993;48.256;16.422;2023-03-01T06:19:14;42.7;;;20.8;;
77802;SDS011;66993;48.256;16.422;2023-03-01T06:24:15;47.1;;;22.1;;
77802;SDS011;66993;48.256;16.422;2023-03-01T06:29:16;47.5;;;21.9;;
77802;SDS011;66993;48.256;16.422;2023-03-01T06:34:17;47.0;;;21.5;;
77802;SDS011;66993;48.256;16.422;2023-03-01T06:39:19;47.2;;;21.9;;
77802;SDS011;66993;48.256;16.422;2023-03-01T06:44:20;45.2;;;21.0;;
77802;SDS011;66993;48.256;16.422;2023-03-01T06:49:21;44.1;;;22.6;;
77802;SDS011;66993;48.256;16.422;2023-03-01T06:54:22;49.3;;;24.2;;
77802;SDS011;66993;48.256;16.422;2023-03-01T06:59:23;46.5;;;22.2;;
77802;SDS011;66993;48.256;16.422;2023-03-01T07:04:24;49.0;;;22.6;;
77802;SDS011;66993;48.256;16.422;2023-03-01T07:09:26;43.8;;;21.2;;
77802;SDS011;66993;48.256;16.422;2023-03-01T07:14:27;46.1;;;21.4;;
77802;SDS011;66993;48.256;16.422;2023-03-01T07:19:29;47.0;;;21.0;;
77802;SDS011;66993;48.256;16.422;2023-03-01T07:24:29;48.2;;;22.4;;
77802;SDS011;66993;48.256;16.422;2023-03-01T07:29:31;46.1;;;21.6;;
77802;SDS011;66993;48.256;16.422;2023-03-01T07:34:32;44.7;;;21.5;;
77802;SDS011;66993;48.256;16.422;2023-03-01T07:39:33;47.2;;;22.3;;
77802;SDS011;66993;48.256;16.422;2023-03-01T07:44:34;43.9;;;21.0;;
77802;SDS011;66993;48.256;16.422;2023-03-01T07:49:35;44.4;;;22.3;;
77802;SDS011;66993;48.256;16.422;2023-03-01T07:54:37;49.9;;;23.0;;
77802;SDS011;66993;48.256;16.422;2023-03-01T07:59:38;44.3;;;20.9;;
77802;SDS011;66993;48.256;16.422;2023-03-01T08:04:39;45.9;;;21.2;;
77802;SDS011;66993;48.256;16.422;2023-03-01T08:09:40;44.2;;;20.8;;
77802;SDS011;66993;48.256;16.422;2023-03-01T08:14:41;45.6;;;22.2;;
77802;SDS011;66993;48.256;16.422;2023-03-01T08:19:42;45.9;;;22.1;;
77802;SDS011;66993;48.256;16.422;2023-03-01T08:24:44;46.6;;;21.2;;
77802;SDS011;66993;48.256;16.422;2023-03-01T08:29:45;43.4;;;21.5;;
77802;SDS011;66993;48.256;16.422;2023-03-01T08:34:46;42.8;;;21.2;;
77802;SDS011;66993;48.256;16.422;2023-03-01T08:39:47;44.1;;;22.5;;
77802;SDS011;66993;48.256;16.422;2023-03-01T08:44:48;41.7;;;20.5;;
77802;SDS011;66993;48.256;16.422;2023-03-01T08:49:50;42.0;;;20.8;;
77802;SDS011;66993;48.256;16.422;2023-03-01T08:54:51;43.1;;;22.1;;
77802;SDS011;66993;48.256;16.422;2023-03-01T08:59:52;39.2;;;20.4;;
77802;SDS011;66993;48.256;16.422;2023-03-01T09:04:53;43.0;;;22.4;;
77802;SDS011;66993;48.256;16.422;2023-03-01T09:09:55;40.6;;;21.0;;
77802;SDS011;66993;48.256;16.422;2023-03-01T09:14:56;42.3;;;20.7;;
77802;SDS011;66993;48.256;16.422;2023-03-01T09:19:57;41.3;;;19.9;;
77802;SDS011;66993;48.256;16.422;2023-03-01T09:24:58;38.2;;;19.5;;
77802;SDS011;66993;48.256;16.422;2023-03-01T09:29:59;39.0;;;20.6;;
77802;SDS011;66993;48.256;16.422;2023-03-01T09:35:01;37.3;;;17.9;;
77802;SDS011;66993;48.256;16.422;2023-03-01T09:40:02;39.1;;;19.2;;
77802;SDS011;66993;48.256;16.422;2023-03-01T09:45:04;41.5;;;20.6;;
77802;SDS011;66993;48.256;16.422;2023-03-01T09:50:06;36.0;;;18.3;;
77802;SDS011;66993;48.256;16.422;2023-03-01T09:55:08;41.3;;;20.5;;
77802;SDS011;66993;48.256;16.422;2023-03-01T10:00:11;38.7;;;18.2;;
77802;SDS011;66993;48.256;16.422;2023-03-01T10:05:12;36.8;;;19.2;;
77802;SDS011;66993;48.256;16.422;2023-03-01T10:10:14;37.3;;;19.2;;
77802;SDS011;66993;48.256;16.422;2023-03-01T10:15:11;39.0;;;19.9;;
77802;SDS011;66993;48.256;16.422;2023-03-01T10:20:18;40.9;;;20.5;;
77802;SDS011;66993;48.256;16.422;2023-03-01T10:25:13;38.6;;;18.9;;
77802;SDS011;66993;48.256;16.422;2023-03-01T10:30:16;37.5;;;19.5;;
77802;SDS011;66993;48.256;16.422;2023-03-01T10:35:16;34.5;;;19.2;;
77802;SDS011;66993;48.256;16.422;2023-03-01T10:40:17;34.2;;;17.7;;
77802;SDS011;66993;48.256;16.422;2023-03-01T10:50:20;31.5;;;16.3;;
77802;SDS011;66993;48.256;16.422;2023-03-01T10:55:24;30.9;;;18.0;;
77802;SDS011;66993;48.256;16.422;2023-03-01T11:00:22;33.0;;;18.0;;
77802;SDS011;66993;48.256;16.422;2023-03-01T11:05:23;34.6;;;16.9;;
77802;SDS011;66993;48.256;16.422;2023-03-01T11:10:24;33.8;;;18.1;;
77802;SDS011;66993;48.256;16.422;2023-03-01T11:15:26;31.9;;;19.4;;
77802;SDS011;66993;48.256;16.422;2023-03-01T11:20:27;32.3;;;18.7;;
77802;SDS011;66993;48.256;16.422;2023-03-01T11:25:29;29.1;;;16.5;;
77802;SDS011;66993;48.256;16.422;2023-03-01T11:30:29;28.5;;;14.2;;
77802;SDS011;66993;48.256;16.422;2023-03-01T11:35:30;26.5;;;15.3;;
77802;SDS011;66993;48.256;16.422;2023-03-01T11:40:33;28.9;;;15.8;;
77802;SDS011;66993;48.256;16.422;2023-03-01T11:45:35;23.7;;;14.4;;
77802;SDS011;66993;48.256;16.422;2023-03-01T11:50:35;23.7;;;14.0;;
77802;SDS011;66993;48.256;16.422;2023-03-01T11:55:37;23.3;;;13.1;;
77802;SDS011;66993;48.256;16.422;2023-03-01T12:00:40;22.9;;;14.1;;
77802;SDS011;66993;48.256;16.422;2023-03-01T12:10:40;23.1;;;13.9;;
77802;SDS011;66993;48.256;16.422;2023-03-01T12:15:42;24.3;;;14.2;;
77802;SDS011;66993;48.256;16.422;2023-03-01T12:20:42;22.9;;;13.4;;
77802;SDS011;66993;48.256;16.422;2023-03-01T12:25:43;22.3;;;13.7;;
77802;SDS011;66993;48.256;16.422;2023-03-01T12:30:47;25.3;;;14.2;;
77802;SDS011;66993;48.256;16.422;2023-03-01T12:35:49;23.3;;;12.1;;
77802;SDS011;66993;48.256;16.422;2023-03-01T12:40:49;28.8;;;16.5;;
77802;SDS011;66993;48.256;16.422;2023-03-01T12:45:50;25.0;;;13.5;;
77802;SDS011;66993;48.256;16.422;2023-03-01T12:50:49;24.1;;;13.1;;
77802;SDS011;66993;48.256;16.422;2023-03-01T12:55:49;23.4;;;13.2;;
77802;SDS011;66993;48.256;16.422;2023-03-01T13:00:53;26.4;;;14.0;;
77802;SDS011;66993;48.256;16.422;2023-03-01T13:05:56;25.9;;;15.5;;
77802;SDS011;66993;48.256;16.422;2023-03-01T13:10:54;24.6;;;14.3;;
77802;SDS011;66993;48.256;16.422;2023-03-01T13:15:54;23.3;;;14.3;;
77802;SDS011;66993;48.256;16.422;2023-03-01T13:20:55;22.0;;;13.4;;
77802;SDS011;66993;48.256;16.422;2023-03-01T13:26:01;25.4;;;15.0;;
77802;SDS011;66993;48.256;16.422;2023-03-01T13:30:58;29.1;;;16.4;;
77802;SDS011;66993;48.256;16.422;2023-03-01T13:35:59;26.0;;;15.8;;
77802;SDS011;66993;48.256;16.422;2023-03-01T13:41:00;23.0;;;14.7;;
77802;SDS011;66993;48.256;16.422;2023-03-01T13:46:02;28.6;;;17.5;;
77802;SDS011;66993;48.256;16.422;2023-03-01T13:51:03;26.7;;;15.8;;
77802;SDS011;66993;48.256;16.422;2023-03-01T13:56:07;28.9;;;17.1;;
77802;SDS011;66993;48.256;16.422;2023-03-01T14:01:06;29.2;;;16.5;;
77802;SDS011;66993;48.256;16.422;2023-03-01T14:06:07;29.6;;;17.4;;
77802;SDS011;66993;48.256;16.422;2023-03-01T14:16:12;26.5;;;16.0;;
77802;SDS011;66993;48.256;16.422;2023-03-01T14:21:12;30.5;;;17.4;;
77802;SDS011;66993;48.256;16.422;2023-03-01T14:26:11;30.3;;;15.7;;
77802;SDS011;66993;48.256;16.422;2023-03-01T14:36:13;29.5;;;17.1;;
77802;SDS011;66993;48.256;16.422;2023-03-01T14:41:16;29.8;;;16.6;;
77802;SDS011;66993;48.256;16.422;2023-03-01T14:46:18;28.6;;;16.6;;
77802;SDS011;66993;48.256;16.422;2023-03-01T14:51:17;27.8;;;15.5;;
77802;SDS011;66993;48.256;16.422;2023-03-01T14:56:18;29.5;;;15.7;;
77802;SDS011;66993;48.256;16.422;2023-03-01T15:01:20;32.1;;;18.4;;
77802;SDS011;66993;48.256;16.422;2023-03-01T15:06:21;30.5;;;17.1;;
77802;SDS011;66993;48.256;16.422;2023-03-01T15:11:22;30.5;;;15.9;;
77802;SDS011;66993;48.256;16.422;2023-03-01T15:16:24;29.6;;;15.6;;
77802;SDS011;66993;48.256;16.422;2023-03-01T15:21:25;31.3;;;16.3;;
77802;SDS011;66993;48.256;16.422;2023-03-01T15:26:28;31.7;;;15.5;;
77802;SDS011;66993;48.256;16.422;2023-03-01T15:31:27;28.4;;;15.0;;
77802;SDS011;66993;48.256;16.422;2023-03-01T15:36:30;27.4;;;15.0;;
77802;SDS011;66993;48.256;16.422;2023-03-01T15:41:30;27.6;;;14.4;;
77802;SDS011;66993;48.256;16.422;2023-03-01T15:46:31;28.5;;;14.9;;
77802;SDS011;66993;48.256;16.422;2023-03-01T15:51:33;27.6;;;14.8;;
77802;SDS011;66993;48.256;16.422;2023-03-01T15:56:33;28.4;;;14.0;;
77802;SDS011;66993;48.256;16.422;2023-03-01T16:01:34;28.7;;;14.7;;
77802;SDS011;66993;48.256;16.422;2023-03-01T16:06:35;30.2;;;15.4;;
77802;SDS011;66993;48.256;16.422;2023-03-01T16:11:36;27.2;;;15.2;;
77802;SDS011;66993;48.256;16.422;2023-03-01T16:16:37;33.3;;;16.3;;
77802;SDS011;66993;48.256;16.422;2023-03-01T16:21:39;30.4;;;15.4;;
77802;SDS011;66993;48.256;16.422;2023-03-01T16:26:40;27.9;;;15.0;;
77802;SDS011;66993;48.256;16.422;2023-03-01T16:31:41;28.6;;;15.3;;
77802;SDS011;66993;48.256;16.422;2023-03-01T16:36:42;28.9;;;15.7;;
77802;SDS011;66993;48.256;16.422;2023-03-01T16:41:44;29.2;;;15.2;;
77802;SDS011;66993;48.256;16.422;2023-03-01T16:46:45;27.9;;;15.5;;
77802;SDS011;66993;48.256;16.422;2023-03-01T16:51:46;32.7;;;16.2;;
77802;SDS011;66993;48.256;16.422;2023-03-01T16:56:47;30.2;;;15.1;;
77802;SDS011;66993;48.256;16.422;2023-03-01T17:01:49;31.0;;;15.9;;
77802;SDS011;66993;48.256;16.422;2023-03-01T17:06:50;29.1;;;15.7;;
77802;SDS011;66993;48.256;16.422;2023-03-01T17:11:51;29.0;;;15.6;;
77802;SDS011;66993;48.256;16.422;2023-03-01T17:16:52;34.9;;;17.0;;
77802;SDS011;66993;48.256;16.422;2023-03-01T17:21:54;40.3;;;17.7;;
77802;SDS011;66993;48.256;16.422;2023-03-01T17:26:55;35.2;;;18.2;;
77802;SDS011;66993;48.256;16.422;2023-03-01T17:31:56;30.4;;;16.6;;
77802;SDS011;66993;48.256;16.422;2023-03-01T17:36:57;34.5;;;17.1;;
77802;SDS011;66993;48.256;16.422;2023-03-01T17:41:59;35.4;;;17.7;;
77802;SDS011;66993;48.256;16.422;2023-03-01T17:47:01;38.6;;;17.4;;
77802;SDS011;66993;48.256;16.422;2023-03-01T17:52:01;39.5;;;18.4;;
77802;SDS011;66993;48.256;16.422;2023-03-01T17:57:02;40.0;;;17.6;;
77802;SDS011;66993;48.256;16.422;2023-03-01T18:02:04;38.0;;;17.0;;
77802;SDS011;66993;48.256;16.422;2023-03-01T18:07:05;37.9;;;18.4;;
77802;SDS011;66993;48.256;16.422;2023-03-01T18:12:06;34.2;;;17.1;;
77802;SDS011;66993;48.256;16.422;2023-03-01T18:17:07;34.2;;;17.9;;
77802;SDS011;66993;48.256;16.422;2023-03-01T18:22:08;38.3;;;17.8;;
77802;SDS011;66993;48.256;16.422;2023-03-01T18:27:10;33.0;;;15.5;;
77802;SDS011;66993;48.256;16.422;2023-03-01T18:32:11;36.8;;;18.1;;
77802;SDS011;66993;48.256;16.422;2023-03-01T18:37:12;43.2;;;18.4;;
77802;SDS011;66993;48.256;16.422;2023-03-01T18:42:13;41.8;;;21.1;;
77802;SDS011;66993;48.256;16.422;2023-03-01T18:47:14;40.1;;;19.0;;
77802;SDS011;66993;48.256;16.422;2023-03-01T18:52:16;43.4;;;19.8;;
77802;SDS011;66993;48.256;16.422;2023-03-01T18:57:17;44.3;;;20.1;;
77802;SDS011;66993;48.256;16.422;2023-03-01T19:02:18;49.3;;;20.8;;
77802;SDS011;66993;48.256;16.422;2023-03-01T19:07:19;46.6;;;20.7;;
77802;SDS011;66993;48.256;16.422;2023-03-01T19:12:20;47.1;;;21.4;;
77802;SDS011;66993;48.256;16.422;2023-03-01T19:17:22;52.0;;;22.4;;
77802;SDS011;66993;48.256;16.422;2023-03-01T19:22:23;49.5;;;22.7;;
77802;SDS011;66993;48.256;16.422;2023-03-01T19:27:24;53.6;;;22.7;;
77802;SDS011;66993;48.256;16.422;2023-03-01T19:32:25;54.6;;;24.6;;
77802;SDS011;66993;48.256;16.422;2023-03-01T19:37:26;53.9;;;24.5;;
77802;SDS011;66993;48.256;16.422;2023-03-01T19:42:27;52.5;;;22.8;;
77802;SDS011;66993;48.256;16.422;2023-03-01T19:47:28;52.9;;;23.7;;
77802;SDS011;66993;48.256;16.422;2023-03-01T19:52:30;49.2;;;22.9;;
77802;SDS011;66993;48.256;16.422;2023-03-01T19:57:31;50.3;;;23.8;;
77802;SDS011;66993;48.256;16.422;2023-03-01T20:02:32;53.6;;;23.6;;
77802;SDS011;66993;48.256;16.422;2023-03-01T20:07:33;50.4;;;23.2;;
77802;SDS011;66993;48.256;16.422;2023-03-01T20:12:35;51.0;;;23.0;;
77802;SDS011;66993;48.256;16.422;2023-03-01T20:17:36;52.7;;;23.4;;
77802;SDS011;66993;48.256;16.422;2023-03-01T20:22:37;49.9;;;24.7;;
77802;SDS011;66993;48.256;16.422;2023-03-01T20:27:38;52.0;;;23.3;;
77802;SDS011;66993;48.256;16.422;2023-03-01T20:32:39;52.7;;;22.4;;
77802;SDS011;66993;48.256;16.422;2023-03-01T20:37:40;49.6;;;23.2;;
77802;SDS011;66993;48.256;16.422;2023-03-01T20:42:42;52.2;;;22.9;;
77802;SDS011;66993;48.256;16.422;2023-03-01T20:47:43;55.5;;;25.2;;
77802;SDS011;66993;48.256;16.422;2023-03-01T20:52:44;54.0;;;24.9;;
77802;SDS011;66993;48.256;16.422;2023-03-01T20:57:45;56.2;;;24.2;;
77802;SDS011;66993;48.256;16.422;2023-03-01T21:02:46;55.0;;;25.2;;
77802;SDS011;66993;48.256;16.422;2023-03-01T21:07:48;55.2;;;24.8;;
77802;SDS011;66993;48.256;16.422;2023-03-01T21:12:48;57.9;;;26.6;;
77802;SDS011;66993;48.256;16.422;2023-03-01T21:17:50;55.8;;;25.6;;
77802;SDS011;66993;48.256;16.422;2023-03-01T21:22:51;57.4;;;26.4;;
77802;SDS011;66993;48.256;16.422;2023-03-01T21:27:52;53.3;;;23.5;;
77802;SDS011;66993;48.256;16.422;2023-03-01T21:32:53;53.5;;;23.0;;
77802;SDS011;66993;48.256;16.422;2023-03-01T21:37:54;54.3;;;25.9;;
77802;SDS011;66993;48.256;16.422;2023-03-01T21:42:55;56.1;;;25.4;;
77802;SDS011;66993;48.256;16.422;2023-03-01T21:47:57;54.0;;;25.4;;
77802;SDS011;66993;48.256;16.422;2023-03-01T21:52:58;55.6;;;26.3;;
77802;SDS011;66993;48.256;16.422;2023-03-01T21:57:59;51.8;;;22.7;;
77802;SDS011;66993;48.256;16.422;2023-03-01T22:03:00;50.9;;;24.6;;
77802;SDS011;66993;48.256;16.422;2023-03-01T22:08:01;49.8;;;23.5;;
77802;SDS011;66993;48.256;16.422;2023-03-01T22:13:03;54.9;;;25.4;;
77802;SDS011;66993;48.256;16.422;2023-03-01T22:18:04;56.2;;;26.2;;
77802;SDS011;66993;48.256;16.422;2023-03-01T22:23:05;56.0;;;25.7;;
77802;SDS011;66993;48.256;16.422;2023-03-01T22:28:06;56.6;;;26.5;;
77802;SDS011;66993;48.256;16.422;2023-03-01T22:33:07;56.4;;;25.6;;
77802;SDS011;66993;48.256;16.422;2023-03-01T22:38:09;57.1;;;25.9;;
77802;SDS011;66993;48.256;16.422;2023-03-01T22:43:10;61.1;;;28.8;;
77802;SDS011;66993;48.256;16.422;2023-03-01T22:48:11;60.3;;;28.3;;
77802;SDS011;66993;48.256;16.422;2023-03-01T22:53:12;59.5;;;28.0;;
77802;SDS011;66993;48.256;16.422;2023-03-01T22:58:13;63.9;;;28.7;;
77802;SDS011;66993;48.256;16.422;2023-03-01T23:03:14;69.7;;;30.4;;
77802;SDS011;66993;48.256;16.422;2023-03-01T23:08:15;69.1;;;31.9;;
77802;SDS011;66993;48.256;16.422;2023-03-01T23:13:17;70.4;;;30.2;;
77802;SDS011;66993;48.256;16.422;2023-03-01T23:18:18;71.8;;;33.5;;
77802;SDS011;66993;48.256;16.422;2023-03-01T23:23:19;72.9;;;32.0;;
77802;SDS011;66993;48.256;16.422;2023-03-01T23:28:20;67.8;;;30.8;;
77802;SDS011;66993;48.256;16.422;2023-03-01T23:33:22;68.7;;;32.5;;
77802;SDS011;66993;48.256;16.422;2023-03-01T23:38:23;70.7;;;30.4;;
77802;SDS011;66993;48.256;16.422;2023-03-01T23:43:25;68.3;;;32.0;;
77802;SDS011;66993;48.256;16.422;2023-03-01T23:48:25;66.6;;;31.0;;
77802;SDS011;66993;48.256;16.422;2023-03-01T23:53:26;65.4;;;28.3;;
77802;SDS011;66993;48.256;16.422;2023-03-01T23:58:28;63.4;;;29.5;;
